Time;durP1;ratioP1;P1;durP2;ratioP2;P2;SDS_P1;SDS_P2;PMS_P1;PMS_P2;Temp;Humidity;BMP_temperature;BMP_pressure;BME280_temperature;BME280_humidity;BME280_pressure;Samples;Min_cycle;Max_cycle;Signal;HPM_P1;HPM_P2
2022/07/12 00:00:55;;;;;;;6.30;4.87;;;;;;;15.10;94.17;102291.72;5092649;28;20020;-81
2022/07/12 00:03:20;;;;;;;4.70;4.00;;;;;;;14.95;93.40;102291.88;5095167;28;20059;-81
2022/07/12 00:05:46;;;;;;;4.27;3.87;;;;;;;14.89;93.47;102291.88;5088233;28;20059;-81
2022/07/12 00:08:11;;;;;;;3.73;3.43;;;;;;;14.83;93.26;102279.91;5074710;28;20029;-81
2022/07/12 00:10:36;;;;;;;3.60;3.30;;;;;;;14.87;93.28;102289.34;5053394;28;20111;-81
2022/07/12 00:13:03;;;;;;;4.57;4.17;;;;;;;14.84;93.39;102282.41;5072199;28;20021;-81
2022/07/12 00:15:29;;;;;;;5.87;3.90;;;;;;;14.75;92.97;102283.63;5056537;28;20566;-81
2022/07/12 00:17:54;;;;;;;4.13;3.50;;;;;;;14.73;92.70;102282.16;5056111;28;20054;-81
2022/07/12 00:20:20;;;;;;;4.77;4.13;;;;;;;14.76;93.44;102279.03;5073680;28;20372;-81
2022/07/12 00:22:46;;;;;;;5.10;4.03;;;;;;;14.71;93.58;102273.34;5073742;28;20032;-81
2022/07/12 00:25:12;;;;;;;5.93;4.40;;;;;;;14.72;93.19;102291.41;5072583;28;20512;-81
2022/07/12 00:27:38;;;;;;;6.53;4.90;;;;;;;14.83;93.92;102279.91;5074171;28;20095;-81
2022/07/12 00:30:05;;;;;;;7.87;4.57;;;;;;;14.60;93.58;102283.75;5072406;28;20068;-81
2022/07/12 00:32:30;;;;;;;6.77;5.90;;;;;;;14.65;94.43;102280.47;5038439;28;20472;-81
2022/07/12 00:34:56;;;;;;;5.83;5.03;;;;;;;14.65;93.98;102284.03;5072580;28;20094;-81
2022/07/12 00:37:21;;;;;;;6.17;4.83;;;;;;;14.57;94.22;102277.88;5074763;28;20039;-81
2022/07/12 00:39:46;;;;;;;5.30;4.57;;;;;;;14.52;93.94;102281.22;5074336;28;20052;-81
2022/07/12 00:42:12;;;;;;;5.27;4.00;;;;;;;14.48;93.82;102269.88;5071665;28;20441;-81
2022/07/12 00:44:37;;;;;;;5.97;4.67;;;;;;;14.50;94.19;102269.69;5073914;28;20059;-81
2022/07/12 00:47:03;;;;;;;6.23;5.50;;;;;;;14.56;95.57;102270.75;5072408;28;20047;-81
2022/07/12 00:49:30;;;;;;;6.77;5.37;;;;;;;14.56;94.81;102271.56;5073118;28;20040;-81
2022/07/12 00:51:56;;;;;;;7.63;5.40;;;;;;;14.46;94.45;102273.84;5073382;28;20040;-81
2022/07/12 00:54:22;;;;;;;5.87;5.27;;;;;;;14.40;94.19;102267.34;5073231;28;20118;-81
2022/07/12 00:56:47;;;;;;;5.67;5.17;;;;;;;14.39;94.71;102271.09;5072033;28;20021;-81
2022/07/12 00:59:13;;;;;;;6.17;5.60;;;;;;;14.36;95.64;102260.59;5074289;28;20111;-81
2022/07/12 01:01:38;;;;;;;5.77;5.27;;;;;;;14.33;95.71;102267.31;5074108;28;20020;-81
2022/07/12 01:04:04;;;;;;;5.60;5.10;;;;;;;14.34;96.40;102262.69;5056680;28;20020;-81
2022/07/12 01:06:31;;;;;;;6.33;5.37;;;;;;;14.35;96.58;102270.66;5079074;28;20468;-84
2022/07/12 01:08:58;;;;;;;6.23;5.63;;;;;;;14.35;96.74;102281.56;5093848;28;20019;-81
2022/07/12 01:11:25;;;;;;;5.53;5.03;;;;;;;14.29;96.73;102276.94;5092494;28;20491;-81
2022/07/12 01:13:51;;;;;;;5.40;4.90;;;;;;;14.30;97.02;102284.03;5094300;28;20019;-81
2022/07/12 01:16:18;;;;;;;5.63;5.07;;;;;;;14.23;97.34;102271.44;5093743;28;20115;-82
2022/07/12 01:18:44;;;;;;;6.93;6.33;;;;;;;14.28;98.04;102277.09;5094488;28;20077;-81
2022/07/12 01:21:12;;;;;;;6.27;5.67;;;;;;;14.16;96.90;102276.84;5072278;28;20408;-81
2022/07/12 01:23:39;;;;;;;6.97;5.50;;;;;;;14.15;96.16;102273.25;5074133;28;20028;-81
2022/07/12 01:26:04;;;;;;;6.43;5.70;;;;;;;14.16;95.29;102288.59;5090476;28;20031;-81
2022/07/12 01:28:30;;;;;;;5.83;5.33;;;;;;;14.12;95.11;102287.31;5094132;28;20024;-81
2022/07/12 01:30:56;;;;;;;7.67;6.37;;;;;;;14.04;95.20;102294.81;5094129;28;20028;-81
2022/07/12 01:33:22;;;;;;;5.63;5.03;;;;;;;14.07;95.32;102288.94;5094456;28;20016;-81
2022/07/12 01:35:48;;;;;;;6.67;4.97;;;;;;;14.04;95.30;102300.25;5093273;28;20063;-82
2022/07/12 01:38:13;;;;;;;5.43;5.03;;;;;;;13.92;95.36;102303.50;5094224;28;20032;-81
2022/07/12 01:40:39;;;;;;;5.00;4.53;;;;;;;13.81;95.17;102291.28;5093053;28;20119;-81
2022/07/12 01:43:05;;;;;;;5.70;4.70;;;;;;;13.88;94.48;102310.41;5092663;28;20345;-81
2022/07/12 01:45:30;;;;;;;5.03;4.53;;;;;;;13.94;94.25;102306.91;5074625;28;20040;-81
2022/07/12 01:47:58;;;;;;;6.07;4.70;;;;;;;13.95;94.17;102303.13;5093512;28;20051;-81
2022/07/12 01:50:24;;;;;;;6.20;5.60;;;;;;;14.01;95.09;102291.41;5093329;28;20031;-82
2022/07/12 01:52:52;;;;;;;7.30;6.63;;;;;;;13.99;96.27;102303.56;5092064;28;20020;-81
2022/07/12 01:55:18;;;;;;;6.83;5.90;;;;;;;13.98;95.80;102300.00;5094155;28;20104;-81
2022/07/12 01:57:44;;;;;;;8.30;6.53;;;;;;;14.00;96.13;102297.91;5093824;28;20032;-81
2022/07/12 02:00:11;;;;;;;8.53;6.63;;;;;;;14.01;95.66;102298.78;5093599;28;20372;-82
2022/07/12 02:02:37;;;;;;;7.90;6.93;;;;;;;13.99;96.04;102298.09;5094133;28;20177;-82
2022/07/12 02:05:04;;;;;;;6.33;5.73;;;;;;;13.88;95.27;102288.59;5093853;28;20020;-82
2022/07/12 02:07:30;;;;;;;6.53;5.80;;;;;;;13.90;95.17;102289.25;5074772;28;20044;-82
2022/07/12 02:09:55;;;;;;;6.97;6.20;;;;;;;13.91;95.02;102290.09;5073369;28;20431;-82
2022/07/12 02:12:21;;;;;;;6.57;5.97;;;;;;;13.87;94.76;102280.63;5050816;28;20060;-82
2022/07/12 02:14:46;;;;;;;6.80;6.20;;;;;;;13.93;94.81;102288.03;5055066;28;20025;-81
2022/07/12 02:17:12;;;;;;;6.40;5.80;;;;;;;13.95;94.64;102294.09;5072952;28;20055;-81
2022/07/12 02:19:37;;;;;;;8.07;6.60;;;;;;;13.93;95.24;102288.84;5073312;28;20078;-81
2022/07/12 02:22:03;;;;;;;7.00;6.13;;;;;;;13.94;94.86;102282.38;5072798;28;20045;-82
2022/07/12 02:24:28;;;;;;;7.70;6.37;;;;;;;13.94;95.09;102276.91;5055189;28;20109;-81
2022/07/12 02:26:54;;;;;;;6.67;5.97;;;;;;;13.79;94.23;102290.66;5072551;28;20091;-81
2022/07/12 02:29:46;;;;;;;7.00;5.90;;;;;;;13.86;93.93;102293.44;5054358;28;20028;-81
2022/07/12 02:32:11;;;;;;;6.90;6.20;;;;;;;13.64;94.11;102277.13;5065337;28;20017;-81
2022/07/12 02:34:37;;;;;;;6.43;5.73;;;;;;;13.60;94.24;102267.66;5073563;28;20025;-81
2022/07/12 02:37:02;;;;;;;6.30;5.70;;;;;;;13.58;94.04;102283.34;5055195;28;20392;-81
2022/07/12 02:39:28;;;;;;;6.53;5.63;;;;;;;13.58;94.31;102274.34;5039055;28;20032;-82
2022/07/12 02:41:54;;;;;;;7.50;6.80;;;;;;;13.62;95.39;102271.00;5052531;28;20102;-81
2022/07/12 02:44:19;;;;;;;6.27;5.67;;;;;;;13.48;94.49;102277.41;5073408;28;20028;-82
2022/07/12 02:46:45;;;;;;;7.70;6.33;;;;;;;13.55;95.02;102288.34;5054838;28;20368;-82
2022/07/12 02:49:10;;;;;;;6.07;5.47;;;;;;;13.56;94.67;102285.44;5075379;28;20028;-81
2022/07/12 02:51:36;;;;;;;6.50;5.90;;;;;;;13.46;94.31;102288.50;5075880;28;20024;-81
2022/07/12 02:54:01;;;;;;;6.00;5.50;;;;;;;13.42;94.37;102291.78;5048809;28;20037;-81
2022/07/12 02:56:27;;;;;;;6.37;5.77;;;;;;;13.41;94.87;102296.41;5070028;28;20468;-81
2022/07/12 02:58:52;;;;;;;6.33;5.73;;;;;;;13.49;94.73;102287.22;5075733;28;20094;-81
2022/07/12 03:01:18;;;;;;;8.23;5.90;;;;;;;13.38;94.63;102290.50;5076012;28;20028;-81
2022/07/12 03:03:43;;;;;;;6.53;5.83;;;;;;;13.29;94.26;102282.44;5055888;28;20035;-81
2022/07/12 03:06:09;;;;;;;7.13;5.90;;;;;;;13.28;93.99;102280.75;5076461;28;20071;-82
2022/07/12 03:08:34;;;;;;;8.77;6.03;;;;;;;13.37;94.15;102286.09;5058188;28;20024;-81
2022/07/12 03:10:59;;;;;;;6.77;6.17;;;;;;;13.30;94.27;102285.97;5075008;28;20097;-81
2022/07/12 03:13:25;;;;;;;7.50;6.30;;;;;;;13.20;93.85;102289.03;5074070;28;20036;-81
2022/07/12 03:15:50;;;;;;;6.90;6.20;;;;;;;13.17;94.08;102290.25;5076746;28;20482;-81
2022/07/12 03:18:17;;;;;;;8.43;6.63;;;;;;;13.10;94.01;102292.09;5074578;28;20028;-81
2022/07/12 03:20:42;;;;;;;7.13;6.43;;;;;;;13.05;93.90;102283.66;5074992;28;20028;-81
2022/07/12 03:23:08;;;;;;;6.83;6.10;;;;;;;13.01;93.94;102287.78;5075807;28;20037;-81
2022/07/12 03:25:33;;;;;;;6.43;5.77;;;;;;;13.03;94.30;102287.59;5075542;28;20036;-81
2022/07/12 03:27:59;;;;;;;6.17;5.57;;;;;;;12.98;94.43;102280.84;5075596;28;20038;-81
2022/07/12 03:30:25;;;;;;;6.70;6.10;;;;;;;12.97;94.73;102283.78;5074023;28;20016;-81
2022/07/12 03:32:50;;;;;;;6.00;5.50;;;;;;;12.96;94.70;102285.66;5074954;28;20033;-81
2022/07/12 03:35:15;;;;;;;6.67;5.80;;;;;;;12.96;95.39;102282.94;5075991;28;20060;-81
2022/07/12 03:37:46;;;;;;;7.53;6.00;;;;;;;12.97;95.42;102287.34;5075239;28;20028;-81
2022/07/12 03:40:13;;;;;;;6.30;5.70;;;;;;;12.92;94.92;102281.66;5044812;28;20059;-81
2022/07/12 03:42:39;;;;;;;6.10;5.50;;;;;;;12.89;94.97;102284.75;5072688;28;20025;-81
2022/07/12 03:45:06;;;;;;;6.40;5.63;;;;;;;12.84;94.91;102270.88;5055994;28;20070;-81
2022/07/12 03:47:32;;;;;;;6.27;5.53;;;;;;;12.91;95.10;102284.56;5075217;28;20403;-81
2022/07/12 03:49:57;;;;;;;6.20;5.57;;;;;;;12.87;95.03;102284.09;5073765;28;20032;-81
2022/07/12 03:52:23;;;;;;;6.50;5.90;;;;;;;12.88;95.42;102269.47;5074885;28;20035;-81
2022/07/12 03:54:48;;;;;;;6.10;5.50;;;;;;;12.91;95.43;102282.66;5074572;28;20027;-81
2022/07/12 03:57:14;;;;;;;6.20;5.60;;;;;;;12.81;95.16;102276.69;5073055;28;20522;-81
2022/07/12 03:59:45;;;;;;;8.20;5.97;;;;;;;12.82;95.57;102281.09;5074425;28;20025;-81
2022/07/12 04:02:11;;;;;;;6.60;5.93;;;;;;;12.90;95.41;102286.41;5073843;28;20025;-81
2022/07/12 04:04:36;;;;;;;6.60;5.90;;;;;;;12.89;96.03;102281.16;5073486;28;20024;-81
2022/07/12 04:07:03;;;;;;;11.03;6.57;;;;;;;12.87;96.71;102280.53;5087236;28;20032;-81
2022/07/12 04:09:28;;;;;;;8.03;7.07;;;;;;;12.90;96.86;102277.44;5092630;28;20028;-81
2022/07/12 04:11:54;;;;;;;8.83;8.00;;;;;;;13.02;97.76;102280.50;5093341;28;20092;-83
2022/07/12 04:14:19;;;;;;;13.47;12.07;;;;;;;13.18;100.00;102269.34;5091451;28;20042;-81
2022/07/12 04:16:45;;;;;;;17.70;15.33;;;;;;;13.36;100.00;102278.97;5077719;28;20136;-82
2022/07/12 04:19:10;;;;;;;17.67;15.77;;;;;;;13.48;100.00;102285.56;5094538;28;20045;-81
2022/07/12 04:21:36;;;;;;;16.63;14.83;;;;;;;13.46;100.00;102277.59;5094454;28;20028;-81
2022/07/12 04:24:02;;;;;;;17.03;15.13;;;;;;;13.51;100.00;102280.56;5093832;28;20035;-81
2022/07/12 04:26:28;;;;;;;15.77;14.07;;;;;;;13.57;100.00;102284.41;5094677;28;20372;-82
2022/07/12 04:28:53;;;;;;;16.67;14.93;;;;;;;13.69;100.00;102290.13;5094791;28;20028;-81
2022/07/12 04:31:18;;;;;;;16.57;14.77;;;;;;;13.68;100.00;102297.47;5095267;28;20529;-81
2022/07/12 04:33:44;;;;;;;14.43;12.93;;;;;;;13.67;100.00;102306.69;5094586;28;20028;-81
2022/07/12 04:36:09;;;;;;;12.93;11.63;;;;;;;13.71;100.00;102318.03;5093762;28;20028;-81
2022/07/12 04:38:34;;;;;;;13.53;12.13;;;;;;;13.76;100.00;102315.56;5094462;28;20024;-81
2022/07/12 04:41:00;;;;;;;11.83;10.60;;;;;;;13.77;100.00;102311.78;5092333;28;20032;-81
2022/07/12 04:43:25;;;;;;;12.57;11.27;;;;;;;13.76;100.00;102301.09;5091474;28;20032;-81
2022/07/12 04:45:51;;;;;;;11.70;10.37;;;;;;;13.81;100.00;102304.06;5094187;28;20024;-81
2022/07/12 04:48:17;;;;;;;13.17;10.60;;;;;;;13.83;100.00;102301.97;5093482;28;20035;-81
2022/07/12 04:50:42;;;;;;;12.47;11.17;;;;;;;13.95;100.00;102311.31;5094381;28;20487;-81
2022/07/12 04:53:08;;;;;;;12.27;11.07;;;;;;;13.97;100.00;102290.13;5092200;28;20032;-81
2022/07/12 04:55:34;;;;;;;12.57;10.10;;;;;;;14.03;100.00;102296.66;5092556;28;20525;-81
2022/07/12 04:57:59;;;;;;;14.00;10.53;;;;;;;14.08;100.00;102301.53;5093465;28;20024;-81
2022/07/12 05:00:25;;;;;;;13.90;12.10;;;;;;;14.16;100.00;102298.66;5093485;28;20463;-81
2022/07/12 05:02:50;;;;;;;13.00;11.70;;;;;;;14.23;100.00;102302.25;5091702;28;20058;-81
2022/07/12 05:05:15;;;;;;;15.83;14.20;;;;;;;14.38;100.00;102298.56;5093652;28;20406;-81
2022/07/12 05:07:41;;;;;;;16.47;14.77;;;;;;;14.48;100.00;102299.03;5093582;28;20521;-81
2022/07/12 05:10:08;;;;;;;15.83;13.60;;;;;;;14.57;100.00;102299.72;5094098;28;20020;-81
2022/07/12 05:12:36;;;;;;;14.67;13.17;;;;;;;14.64;100.00;102309.63;5092405;28;20367;-81
2022/07/12 05:15:02;;;;;;;16.70;14.00;;;;;;;14.71;100.00;102306.91;5094286;28;20487;-81
2022/07/12 05:17:28;;;;;;;14.50;12.87;;;;;;;14.80;100.00;102307.59;5092675;28;20367;-81
2022/07/12 05:19:55;;;;;;;15.23;13.63;;;;;;;14.92;100.00;102318.75;5093523;28;20119;-81
2022/07/12 05:22:20;;;;;;;17.87;15.93;;;;;;;14.99;100.00;102327.81;5093696;28;20028;-81
2022/07/12 05:24:46;;;;;;;17.47;15.57;;;;;;;15.10;100.00;102320.91;5092833;28;20074;-80
2022/07/12 05:27:11;;;;;;;15.97;14.23;;;;;;;15.23;100.00;102331.88;5090714;28;20044;-82
2022/07/12 05:29:36;;;;;;;14.60;12.87;;;;;;;15.34;100.00;102325.78;5091920;28;20032;-81
2022/07/12 05:32:02;;;;;;;14.77;13.23;;;;;;;15.46;100.00;102331.50;5074937;28;20059;-81
2022/07/12 05:34:28;;;;;;;14.20;12.70;;;;;;;15.60;100.00;102340.53;5093887;28;20059;-80
2022/07/12 05:36:54;;;;;;;14.27;12.77;;;;;;;15.66;99.96;102334.22;5093485;28;20394;-80
2022/07/12 05:39:19;;;;;;;13.23;11.83;;;;;;;15.84;99.11;102343.72;5094030;28;20042;-80
2022/07/12 05:41:46;;;;;;;14.07;12.67;;;;;;;15.96;99.00;102347.50;5093807;28;20032;-80
2022/07/12 05:44:12;;;;;;;14.00;12.40;;;;;;;16.09;98.66;102343.06;5091805;28;20039;-80
2022/07/12 05:46:37;;;;;;;13.83;12.20;;;;;;;16.24;97.85;102349.16;5094123;28;20036;-80
2022/07/12 05:49:03;;;;;;;13.60;12.20;;;;;;;16.38;97.03;102363.63;5092965;28;20024;-80
2022/07/12 05:54:12;;;;;;;13.80;12.30;;;;;;;16.67;95.92;102370.53;5092767;28;20043;-80
2022/07/12 05:56:37;;;;;;;14.47;12.37;;;;;;;16.76;95.13;102373.03;5093295;28;20024;-80
2022/07/12 05:59:03;;;;;;;15.37;11.87;;;;;;;16.82;93.44;102363.91;5093929;28;20020;-80
2022/07/12 06:01:28;;;;;;;14.37;11.60;;;;;;;16.87;94.00;102367.69;5092788;28;20028;-80
2022/07/12 06:03:54;;;;;;;13.57;11.43;;;;;;;17.02;92.86;102375.66;5093986;28;20111;-80
2022/07/12 06:06:19;;;;;;;13.10;11.70;;;;;;;17.10;91.80;102382.78;5086261;28;20138;-81
2022/07/12 06:08:44;;;;;;;13.03;11.17;;;;;;;17.16;91.57;102381.94;5071128;28;20060;-79
2022/07/12 06:11:10;;;;;;;12.47;10.80;;;;;;;17.18;90.79;102373.50;5054989;28;20028;-79
2022/07/12 06:13:35;;;;;;;13.00;11.60;;;;;;;17.35;90.89;102379.28;5069475;28;20021;-80
2022/07/12 06:16:01;;;;;;;14.97;12.00;;;;;;;17.51;90.79;102389.72;5072232;28;20016;-80
2022/07/12 06:18:26;;;;;;;14.13;12.40;;;;;;;17.60;90.29;102394.94;5037131;28;20388;-79
2022/07/12 06:20:52;;;;;;;16.17;13.00;;;;;;;17.72;90.57;102387.69;5072590;28;20060;-80
2022/07/12 06:23:18;;;;;;;14.83;11.73;;;;;;;17.83;88.66;102394.38;5074407;28;20025;-79
2022/07/12 06:25:45;;;;;;;15.07;11.50;;;;;;;17.94;89.00;102393.66;5077006;28;20040;-80
2022/07/12 06:28:10;;;;;;;17.27;12.10;;;;;;;18.03;88.06;102388.72;5076731;28;20039;-80
2022/07/12 06:30:36;;;;;;;14.93;12.40;;;;;;;18.14;87.67;102388.00;5075134;28;20456;-80
2022/07/12 06:33:01;;;;;;;15.33;12.50;;;;;;;18.20;85.86;102383.53;5075132;28;20023;-81
2022/07/12 06:35:27;;;;;;;13.80;11.80;;;;;;;18.28;86.21;102385.97;5075348;28;20120;-80
2022/07/12 06:37:53;;;;;;;13.63;10.77;;;;;;;18.33;84.67;102383.41;5075550;28;20028;-80
2022/07/12 06:40:18;;;;;;;14.48;11.52;;;;;;;18.47;85.48;102377.78;5077344;28;20055;-79
2022/07/12 06:42:43;;;;;;;13.63;12.23;;;;;;;18.46;85.09;102376.09;5075746;28;20029;-81
2022/07/12 06:45:10;;;;;;;17.40;12.70;;;;;;;18.62;85.45;102383.72;5057543;28;20429;-80
2022/07/12 06:47:36;;;;;;;15.60;11.95;;;;;;;18.68;84.21;102368.22;5075565;28;20029;-80
2022/07/12 06:50:02;;;;;;;15.13;11.73;;;;;;;18.77;84.04;102383.34;5057749;28;20464;-81
2022/07/12 06:52:27;;;;;;;13.73;11.65;;;;;;;18.86;83.63;102381.09;5075624;28;20032;-81
2022/07/12 06:54:53;;;;;;;12.80;11.35;;;;;;;18.96;82.88;102380.59;5076770;28;20075;-80
2022/07/12 06:57:18;;;;;;;14.40;12.02;;;;;;;19.13;82.51;102380.81;5076171;28;20025;-80
2022/07/12 06:59:44;;;;;;;12.93;11.52;;;;;;;19.22;81.06;102385.75;5075542;28;20024;-81
2022/07/12 07:02:09;;;;;;;12.65;11.25;;;;;;;19.28;80.25;102377.63;5074656;28;20103;-80
2022/07/12 07:04:35;;;;;;;12.70;11.23;;;;;;;19.40;79.90;102392.25;5074951;28;20029;-80
2022/07/12 07:07:00;;;;;;;12.63;10.32;;;;;;;19.49;78.72;102381.78;5085188;28;20048;-81
2022/07/12 07:09:26;;;;;;;14.02;11.35;;;;;;;19.61;78.95;102381.78;5094168;28;20440;-80
2022/07/12 07:11:53;;;;;;;11.55;10.05;;;;;;;19.71;76.43;102388.41;5094469;28;20111;-80
2022/07/12 07:14:18;;;;;;;15.10;11.20;;;;;;;19.84;77.54;102381.03;5093474;28;20940;-80
2022/07/12 07:16:44;;;;;;;11.75;10.23;;;;;;;20.05;77.58;102382.38;5096245;28;20024;-80
2022/07/12 07:19:09;;;;;;;11.88;10.57;;;;;;;20.13;76.77;102370.19;5094373;28;20071;-79
2022/07/12 07:21:34;;;;;;;12.50;10.90;;;;;;;20.28;76.64;102380.69;5095406;28;20027;-80
2022/07/12 07:24:00;;;;;;;13.40;10.20;;;;;;;20.47;76.17;102379.50;5095359;28;20444;-80
2022/07/12 07:26:25;;;;;;;14.20;10.43;;;;;;;20.49;74.33;102388.34;5092812;28;20028;-81
2022/07/12 07:31:37;;;;;;;10.15;8.77;;;;;;;20.51;73.27;102379.88;5095333;28;20039;-80
2022/07/12 07:34:03;;;;;;;13.70;9.82;;;;;;;20.57;72.93;102384.38;5095689;28;20471;-80
2022/07/12 07:36:29;;;;;;;12.35;10.43;;;;;;;20.74;73.91;102390.84;5091398;28;20379;-79
2022/07/12 07:38:55;;;;;;;13.00;10.90;;;;;;;20.81;72.58;102384.38;5095109;28;20024;-80
2022/07/12 07:41:20;;;;;;;12.43;10.57;;;;;;;20.92;72.50;102381.59;5093252;28;20028;-80
2022/07/12 07:43:46;;;;;;;11.95;10.75;;;;;;;20.99;70.84;102381.44;5093038;28;20032;-79
2022/07/12 07:46:11;;;;;;;14.20;12.70;;;;;;;21.06;71.14;102375.78;5094210;28;20051;-80
2022/07/12 07:48:36;;;;;;;14.50;13.02;;;;;;;21.13;71.13;102387.50;5094803;28;20047;-80
2022/07/12 07:51:02;;;;;;;13.73;11.30;;;;;;;21.21;70.59;102381.59;5078130;28;20111;-79
2022/07/12 07:53:27;;;;;;;11.55;10.35;;;;;;;21.33;69.28;102387.06;5093781;28;20077;-78
2022/07/12 07:55:53;;;;;;;10.95;9.52;;;;;;;21.30;68.19;102376.53;5095482;28;20444;-78
2022/07/12 07:58:20;;;;;;;9.50;8.48;;;;;;;21.43;68.86;102378.13;5095742;28;20074;-78
2022/07/12 08:00:46;;;;;;;11.07;9.57;;;;;;;21.40;69.80;102384.16;5093013;28;20048;-79
2022/07/12 08:03:11;;;;;;;10.88;9.50;;;;;;;21.36;68.93;102383.78;5093489;28;20062;-80
2022/07/12 08:05:37;;;;;;;10.20;9.07;;;;;;;21.41;69.08;102378.38;5094137;28;20024;-80
2022/07/12 08:08:02;;;;;;;12.82;10.23;;;;;;;21.49;68.97;102382.66;5093976;28;20039;-79
2022/07/12 08:10:28;;;;;;;11.10;9.20;;;;;;;21.59;69.37;102384.78;5091784;28;20032;-79
2022/07/12 08:12:53;;;;;;;10.27;9.25;;;;;;;21.68;67.81;102377.78;5091879;28;20035;-79
2022/07/12 08:15:19;;;;;;;10.25;8.57;;;;;;;21.74;66.53;102385.03;5091969;28;20103;-80
2022/07/12 08:17:44;;;;;;;13.20;9.70;;;;;;;21.71;65.75;102388.31;5075663;28;20040;-78
2022/07/12 08:20:10;;;;;;;9.00;8.18;;;;;;;21.84;65.79;102386.31;5094873;28;20024;-80
2022/07/12 08:22:43;;;;;;;9.77;8.77;;;;;;;22.03;65.30;102373.09;5091830;28;20046;-80
2022/07/12 08:25:08;;;;;;;11.90;9.70;;;;;;;22.05;63.14;102385.56;5091345;28;20337;-80
2022/07/12 08:27:34;;;;;;;12.23;10.32;;;;;;;22.05;64.34;102387.50;5093349;28;20119;-80
2022/07/12 08:29:59;;;;;;;10.90;9.73;;;;;;;22.04;62.59;102386.63;5093802;28;20482;-78
2022/07/12 08:32:24;;;;;;;12.23;8.75;;;;;;;22.20;62.14;102386.88;5090681;28;20379;-79
2022/07/12 08:34:50;;;;;;;10.77;8.88;;;;;;;22.25;62.83;102379.50;5091676;28;20456;-80
2022/07/12 08:37:15;;;;;;;11.82;10.13;;;;;;;22.32;62.34;102393.16;5093938;28;20398;-80
2022/07/12 08:39:40;;;;;;;13.45;10.63;;;;;;;22.56;64.14;102393.78;5095204;28;20058;-79
2022/07/12 08:42:07;;;;;;;25.15;10.65;;;;;;;22.61;63.50;102384.72;5092757;28;20036;-79
2022/07/12 08:44:33;;;;;;;11.70;9.80;;;;;;;22.77;63.91;102394.88;5091766;28;20039;-79
2022/07/12 08:46:58;;;;;;;9.90;8.80;;;;;;;22.89;58.50;102402.22;5093917;28;20032;-79
2022/07/12 08:49:24;;;;;;;9.27;8.35;;;;;;;23.02;62.14;102403.75;5092353;28;20051;-79
2022/07/12 08:51:49;;;;;;;9.82;8.77;;;;;;;23.19;60.22;102395.41;5094248;28;20024;-79
2022/07/12 08:54:16;;;;;;;9.80;8.25;;;;;;;23.35;61.42;102394.47;5092258;28;20357;-80
2022/07/12 08:56:43;;;;;;;10.93;8.70;;;;;;;23.63;59.55;102403.59;5091208;28;20454;-80
2022/07/12 08:59:19;;;;;;;10.07;8.50;;;;;;;23.93;61.10;102393.91;5093270;28;20056;-80
2022/07/12 09:01:50;;;;;;;11.48;9.40;;;;;;;24.12;57.94;102407.34;5093757;28;20034;-80
2022/07/12 09:04:20;;;;;;;10.68;8.70;;;;;;;24.36;57.96;102408.63;5092027;28;20375;-80
2022/07/12 09:06:47;;;;;;;8.60;7.68;;;;;;;24.39;57.01;102408.06;5083406;28;20044;-80
2022/07/12 09:09:26;;;;;;;8.38;7.57;;;;;;;24.31;56.45;102397.50;5071092;28;20024;-81
2022/07/12 09:11:52;;;;;;;10.48;7.32;;;;;;;24.44;55.30;102405.34;5055843;28;20060;-81
2022/07/12 09:14:20;;;;;;;8.90;8.00;;;;;;;24.66;57.64;102404.38;5072664;28;20429;-80
2022/07/12 09:17:05;;;;;;;7.90;5.70;;;;;;;25.05;56.71;102401.22;5069116;28;20074;-84
2022/07/12 09:19:31;;;;;;;7.03;6.07;;;;;;;25.19;53.15;102404.28;5069794;28;20507;-80
2022/07/12 09:21:57;;;;;;;6.97;6.28;;;;;;;25.04;52.91;102402.31;5072832;28;20070;-81
2022/07/12 09:24:27;;;;;;;8.73;6.57;;;;;;;25.27;53.79;102395.44;5073375;28;20036;-80
2022/07/12 09:27:04;;;;;;;6.57;5.82;;;;;;;25.82;53.65;102403.28;5036037;28;20414;-81
2022/07/12 09:29:31;;;;;;;7.88;6.60;;;;;;;25.73;49.54;102402.16;5034951;28;20086;-81
2022/07/12 09:37:26;;;;;;;7.30;6.03;;;;;;;25.48;48.76;102394.66;5045401;28;19931;-84
2022/07/12 09:39:53;;;;;;;7.63;5.70;;;;;;;25.63;48.70;102396.63;5051072;28;20025;-80
2022/07/12 09:42:19;;;;;;;7.38;6.68;;;;;;;25.53;49.82;102398.28;5058596;28;20041;-81
2022/07/12 09:44:45;;;;;;;7.72;5.93;;;;;;;25.77;49.39;102398.56;5070466;28;20029;-80
2022/07/12 09:47:13;;;;;;;7.05;5.80;;;;;;;25.97;50.34;102391.34;5045951;28;20031;-81
2022/07/12 09:49:47;;;;;;;5.45;4.95;;;;;;;26.03;49.27;102392.19;5068103;28;20407;-80
2022/07/12 09:52:24;;;;;;;6.45;5.80;;;;;;;26.26;50.29;102404.66;5070451;28;20520;-81
2022/07/12 09:54:52;;;;;;;6.30;5.70;;;;;;;26.28;49.34;102386.59;5061208;28;20051;-81
2022/07/12 09:57:24;;;;;;;5.53;5.03;;;;;;;26.33;48.96;102387.69;5075436;28;20025;-81
2022/07/12 09:59:50;;;;;;;7.38;5.40;;;;;;;26.29;48.28;102382.72;5059215;28;20036;-81
2022/07/12 10:02:17;;;;;;;6.93;5.40;;;;;;;26.60;50.48;102381.75;5077270;28;20107;-80
2022/07/12 10:04:44;;;;;;;8.18;6.47;;;;;;;26.53;49.11;102382.06;5075969;28;20029;-81
2022/07/12 10:07:13;;;;;;;7.47;6.68;;;;;;;26.38;48.46;102385.75;5077084;28;20465;-81
2022/07/12 10:09:39;;;;;;;6.93;6.32;;;;;;;26.43;49.28;102376.56;5077513;28;20089;-81
2022/07/12 10:12:05;;;;;;;8.85;7.22;;;;;;;26.49;48.94;102374.59;5072780;28;20033;-83
2022/07/12 10:14:31;;;;;;;9.02;8.02;;;;;;;26.54;49.40;102378.19;5074800;28;20024;-81
2022/07/12 10:16:57;;;;;;;9.63;7.32;;;;;;;26.63;49.60;102370.09;5059552;28;20056;-80
2022/07/12 10:19:23;;;;;;;9.82;7.32;;;;;;;26.77;48.67;102371.16;5075630;28;20063;-81
2022/07/12 10:21:49;;;;;;;7.78;6.28;;;;;;;26.96;48.62;102376.91;5056209;28;20029;-81
2022/07/12 10:24:33;;;;;;;6.57;5.70;;;;;;;27.16;46.70;102368.72;5075974;28;20040;-81
2022/07/12 10:27:25;;;;;;;7.78;5.50;;;;;;;27.09;46.97;102367.13;5077689;28;20028;-80
2022/07/12 10:29:52;;;;;;;8.35;7.45;;;;;;;27.00;49.38;102366.03;5045284;28;20044;-81
2022/07/12 10:32:26;;;;;;;8.35;7.53;;;;;;;27.05;49.04;102366.03;5076469;28;20028;-81
2022/07/12 10:35:05;;;;;;;12.48;8.80;;;;;;;27.18;49.41;102367.31;5075370;28;20122;-81
2022/07/12 10:37:32;;;;;;;10.40;8.23;;;;;;;26.92;49.29;102359.13;5055985;28;20460;-82
2022/07/12 10:40:17;;;;;;;11.45;9.15;;;;;;;26.57;49.02;102362.88;5072008;28;20059;-81
2022/07/12 10:43:04;;;;;;;10.00;8.85;;;;;;;26.51;49.40;102359.28;5051492;28;20067;-84
2022/07/12 10:45:38;;;;;;;19.30;8.15;;;;;;;26.57;50.03;102368.44;5033514;28;20067;-84
2022/07/12 10:48:08;;;;;;;7.72;6.90;;;;;;;27.02;51.20;102371.31;5053566;28;20625;-80
2022/07/12 10:50:45;;;;;;;10.15;8.50;;;;;;;26.98;50.02;102361.88;5071109;28;20040;-80
2022/07/12 10:53:20;;;;;;;8.77;6.80;;;;;;;27.12;48.98;102360.97;5072566;28;20025;-79
2022/07/12 10:56:15;;;;;;;10.10;6.82;;;;;;;27.75;49.47;102364.97;5067818;28;20107;-81
2022/07/12 10:58:54;;;;;;;7.57;6.25;;;;;;;27.77;46.96;102365.50;5068544;28;20040;-81
2022/07/12 11:01:25;;;;;;;10.98;6.60;;;;;;;27.37;45.91;102361.94;5068225;28;20095;-81
2022/07/12 11:03:57;;;;;;;6.15;5.22;;;;;;;27.30;46.13;102369.75;5071263;28;20031;-80
2022/07/12 11:06:24;;;;;;;8.27;6.50;;;;;;;27.31;46.35;102363.06;5070187;28;20143;-80
2022/07/12 11:09:02;;;;;;;6.72;6.05;;;;;;;27.47;48.20;102361.00;5069092;28;20068;-80
2022/07/12 11:11:32;;;;;;;7.10;5.82;;;;;;;27.30;49.11;102372.53;5070351;28;20415;-80
2022/07/12 11:14:01;;;;;;;7.07;5.28;;;;;;;27.52;45.16;102362.94;5073429;28;20029;-81
2022/07/12 11:16:27;;;;;;;6.03;5.15;;;;;;;27.70;45.86;102362.25;5067635;28;20028;-80
2022/07/12 11:18:54;;;;;;;5.30;4.32;;;;;;;28.12;46.54;102360.75;5069279;28;20060;-81
2022/07/12 11:21:20;;;;;;;7.22;5.38;;;;;;;27.91;44.31;102357.31;5051829;28;20177;-80
2022/07/12 11:23:46;;;;;;;6.55;4.00;;;;;;;28.00;43.58;102362.22;5072079;28;20031;-81
2022/07/12 11:26:13;;;;;;;6.35;4.40;;;;;;;27.92;43.22;102353.41;5068850;28;20028;-80